createdAt,value
2022-12-29T00:00:10.896Z,83.27
2022-12-29T00:02:37.359Z,83.93
2022-12-29T00:05:07.915Z,83.60
2022-12-29T00:07:34.340Z,84.15
2022-12-29T00:10:00.893Z,84.03
2022-12-29T00:12:47.247Z,83.64
2022-12-29T00:15:32.246Z,83.53
2022-12-29T00:17:58.639Z,83.24
2022-12-29T00:20:43.526Z,83.61
2022-12-29T00:23:29.033Z,83.13
2022-12-29T00:26:14.567Z,83.15
2022-12-29T00:28:59.749Z,83.08
2022-12-29T00:31:44.875Z,84.11
2022-12-29T00:34:31.155Z,83.11
2022-12-29T00:36:58.088Z,83.00
2022-12-29T00:39:45.768Z,82.68
2022-12-29T00:42:41.383Z,83.13
2022-12-29T00:45:08.090Z,82.45
2022-12-29T00:47:34.497Z,81.93
2022-12-29T00:50:03.390Z,82.15
2022-12-29T00:52:34.368Z,81.95
2022-12-29T00:55:00.788Z,82.26
2022-12-29T00:57:33.236Z,80.15
2022-12-29T01:00:00.959Z,79.81
2022-12-29T01:02:30.235Z,79.93
2022-12-29T01:04:56.799Z,78.56
2022-12-29T01:07:23.374Z,78.53
2022-12-29T01:10:08.490Z,79.79
2022-12-29T01:12:45.674Z,78.48
2022-12-29T01:15:15.342Z,79.24
2022-12-29T01:17:41.983Z,78.83
2022-12-29T01:20:09.013Z,78.70
2022-12-29T01:22:35.491Z,76.97
2022-12-29T01:25:04.867Z,77.84
2022-12-29T01:27:33.572Z,78.71
2022-12-29T01:30:00.035Z,79.10
2022-12-29T01:32:26.531Z,78.69
2022-12-29T01:34:52.880Z,78.72
2022-12-29T01:37:19.282Z,79.56
2022-12-29T01:39:48.135Z,80.01
2022-12-29T01:42:23.382Z,80.78
2022-12-29T01:44:53.385Z,80.61
2022-12-29T01:47:50.179Z,79.92
2022-12-29T01:50:16.977Z,80.03
2022-12-29T01:52:55.401Z,80.09
2022-12-29T01:55:22.512Z,80.44
2022-12-29T01:57:54.065Z,82.52
2022-12-29T02:00:23.278Z,84.90
2022-12-29T02:02:53.177Z,87.51
2022-12-29T02:05:22.411Z,88.59
2022-12-29T02:07:51.017Z,90.60
2022-12-29T02:10:22.889Z,89.98
2022-12-29T02:12:49.411Z,88.71
2022-12-29T02:15:16.523Z,88.17
2022-12-29T02:18:22.954Z,87.84
2022-12-29T02:21:22.825Z,86.83
2022-12-29T02:24:14.008Z,86.63
2022-12-29T02:27:17.888Z,85.32
2022-12-29T02:30:03.000Z,85.07
2022-12-29T02:32:56.964Z,83.97
2022-12-29T02:35:53.405Z,84.85
2022-12-29T02:39:05.410Z,85.30
2022-12-29T02:41:58.422Z,86.10
2022-12-29T02:44:36.267Z,86.36
2022-12-29T02:47:15.263Z,84.90
2022-12-29T02:49:55.034Z,84.51
2022-12-29T02:52:28.703Z,84.48
2022-12-29T02:55:03.865Z,84.69
2022-12-29T02:57:42.142Z,84.11
2022-12-29T03:00:13.125Z,85.09
2022-12-29T03:03:17.535Z,85.16
2022-12-29T03:06:04.026Z,85.15
2022-12-29T03:08:30.355Z,85.65
2022-12-29T03:11:32.124Z,84.89
2022-12-29T03:14:53.118Z,85.57
2022-12-29T03:17:38.846Z,85.72
2022-12-29T03:20:10.439Z,86.21
2022-12-29T03:22:42.807Z,85.27
2022-12-29T03:25:40.092Z,85.97
2022-12-29T03:28:37.600Z,85.99
2022-12-29T03:31:05.671Z,86.04
2022-12-29T03:33:33.663Z,86.59
2022-12-29T03:36:08.017Z,86.94
2022-12-29T03:38:58.962Z,87.17
2022-12-29T03:41:30.398Z,86.74
2022-12-29T03:43:57.166Z,86.47
2022-12-29T03:46:23.585Z,86.19
2022-12-29T03:48:50.476Z,86.11
2022-12-29T03:51:16.903Z,86.43
2022-12-29T03:53:47.857Z,85.22
2022-12-29T03:56:16.570Z,85.53
2022-12-29T03:58:44.683Z,84.31
2022-12-29T04:01:11.264Z,84.54
2022-12-29T04:03:38.178Z,84.12
2022-12-29T04:06:05.190Z,84.30
2022-12-29T04:08:33.968Z,83.93
2022-12-29T04:11:00.364Z,84.63
2022-12-29T04:13:26.804Z,85.01
2022-12-29T04:15:55.548Z,85.25
2022-12-29T04:18:22.993Z,84.71
2022-12-29T04:21:01.161Z,84.01
2022-12-29T04:23:28.662Z,82.40
2022-12-29T04:25:55.207Z,82.65
2022-12-29T04:28:21.728Z,82.18
2022-12-29T04:30:48.788Z,81.83
2022-12-29T04:33:15.271Z,81.04
2022-12-29T04:35:43.490Z,80.61
2022-12-29T04:38:13.926Z,80.40
2022-12-29T04:40:41.686Z,80.30
2022-12-29T04:43:08.965Z,79.58
2022-12-29T04:45:35.372Z,78.94
2022-12-29T04:48:01.710Z,79.70
2022-12-29T04:50:30.413Z,79.25
2022-12-29T04:52:56.911Z,79.67
2022-12-29T04:55:25.911Z,79.25
2022-12-29T04:57:52.335Z,79.39
2022-12-29T05:00:19.110Z,79.16
2022-12-29T05:02:46.143Z,78.85
2022-12-29T05:05:12.703Z,78.50
2022-12-29T05:07:40.516Z,79.28
2022-12-29T05:10:07.694Z,78.63
2022-12-29T05:12:36.323Z,78.83
2022-12-29T05:15:05.922Z,78.99
2022-12-29T05:17:32.313Z,78.87
2022-12-29T05:19:58.835Z,78.67
2022-12-29T05:22:25.804Z,77.43
2022-12-29T05:24:52.909Z,77.69
2022-12-29T05:27:19.400Z,78.04
2022-12-29T05:29:45.921Z,77.46
2022-12-29T05:32:12.371Z,77.23
2022-12-29T05:34:38.723Z,77.57
2022-12-29T05:37:05.199Z,78.60
2022-12-29T05:39:31.570Z,78.39
2022-12-29T05:41:57.962Z,78.21
2022-12-29T05:44:25.060Z,78.16
2022-12-29T05:46:51.564Z,77.79
2022-12-29T05:49:18.274Z,78.18
2022-12-29T05:51:45.361Z,78.63
2022-12-29T05:54:16.834Z,78.59
2022-12-29T05:56:43.262Z,78.44
2022-12-29T05:59:12.010Z,79.20
2022-12-29T06:01:38.454Z,79.22
2022-12-29T06:04:07.455Z,79.67
2022-12-29T06:06:33.924Z,79.62
2022-12-29T06:09:03.008Z,79.93
2022-12-29T06:11:29.469Z,80.51
2022-12-29T06:13:57.060Z,80.18
2022-12-29T06:16:23.470Z,80.29
2022-12-29T06:18:49.865Z,79.85
2022-12-29T06:21:16.319Z,79.92
2022-12-29T06:23:46.078Z,80.01
2022-12-29T06:26:12.465Z,79.42
2022-12-29T06:28:39.543Z,79.66
2022-12-29T06:31:05.914Z,79.05
2022-12-29T06:33:34.455Z,79.53
2022-12-29T06:36:03.227Z,78.91
2022-12-29T06:38:29.589Z,79.08
2022-12-29T06:40:55.933Z,78.78
2022-12-29T06:43:22.468Z,78.58
2022-12-29T06:45:48.953Z,77.92
2022-12-29T06:48:17.910Z,77.13
2022-12-29T06:50:44.389Z,77.86
2022-12-29T06:53:10.801Z,76.96
2022-12-29T06:55:37.945Z,77.71
2022-12-29T06:58:04.361Z,77.13
2022-12-29T07:00:30.815Z,77.03
2022-12-29T07:03:00.739Z,77.36
2022-12-29T07:05:33.902Z,77.44
2022-12-29T07:08:00.986Z,77.31
2022-12-29T07:10:27.532Z,75.93
2022-12-29T07:12:54.057Z,76.85
2022-12-29T07:15:20.452Z,75.92
2022-12-29T07:17:46.876Z,77.23
2022-12-29T07:20:13.443Z,77.73
2022-12-29T07:22:39.947Z,76.49
2022-12-29T07:25:06.554Z,76.98
2022-12-29T07:27:33.576Z,76.89
2022-12-29T07:30:00.093Z,76.95
2022-12-29T07:32:26.551Z,77.26
2022-12-29T07:34:56.970Z,75.78
2022-12-29T07:37:23.311Z,75.92
2022-12-29T07:39:49.723Z,76.25
2022-12-29T07:42:17.335Z,76.06
2022-12-29T07:44:44.903Z,75.91
2022-12-29T07:47:11.440Z,76.38
2022-12-29T07:49:37.886Z,76.34
2022-12-29T07:52:04.554Z,75.30
2022-12-29T07:54:30.969Z,76.50
2022-12-29T07:56:58.505Z,74.75
2022-12-29T07:59:24.949Z,76.91
2022-12-29T08:01:52.304Z,76.88
2022-12-29T08:04:20.214Z,77.74
2022-12-29T08:06:46.668Z,76.47
2022-12-29T08:09:19.595Z,76.84
2022-12-29T08:11:48.660Z,76.45
2022-12-29T08:14:15.056Z,76.80
2022-12-29T08:16:41.527Z,77.10
2022-12-29T08:19:08.396Z,76.54
2022-12-29T08:21:34.883Z,76.00
2022-12-29T08:24:01.506Z,75.83
2022-12-29T08:26:28.910Z,75.54
2022-12-29T08:28:58.093Z,75.50
2022-12-29T08:31:25.107Z,75.93
2022-12-29T08:33:54.144Z,75.26
2022-12-29T08:36:20.734Z,74.06
2022-12-29T08:38:47.085Z,74.44
2022-12-29T08:41:13.938Z,74.79
2022-12-29T08:43:40.326Z,74.75
2022-12-29T08:46:06.788Z,73.51
2022-12-29T08:48:33.459Z,73.35
2022-12-29T08:50:59.823Z,73.75
2022-12-29T08:53:28.878Z,73.10
2022-12-29T08:56:04.154Z,73.32
2022-12-29T08:58:32.392Z,73.67
2022-12-29T09:00:59.566Z,74.07
2022-12-29T09:03:55.153Z,74.06
2022-12-29T09:06:13.391Z,73.88
2022-12-29T09:08:39.808Z,74.98
2022-12-29T09:11:08.701Z,74.75
2022-12-29T09:13:35.973Z,74.81
2022-12-29T09:16:07.871Z,75.81
2022-12-29T09:18:34.773Z,75.28
2022-12-29T09:21:03.284Z,75.83
2022-12-29T09:23:30.336Z,76.51
2022-12-29T09:25:57.237Z,76.40
2022-12-29T09:28:25.796Z,76.38
2022-12-29T09:30:52.728Z,77.09
2022-12-29T09:33:19.433Z,77.46
2022-12-29T09:35:53.968Z,78.18
2022-12-29T09:38:21.261Z,79.09
2022-12-29T09:40:52.956Z,78.01
2022-12-29T09:43:44.527Z,78.29
2022-12-29T09:46:33.045Z,79.67
2022-12-29T09:49:19.298Z,79.70
2022-12-29T09:51:51.125Z,79.54
2022-12-29T09:54:27.724Z,79.69
2022-12-29T09:56:54.497Z,81.99
2022-12-29T10:00:01.347Z,82.94
2022-12-29T10:03:07.057Z,82.75
2022-12-29T10:05:49.918Z,82.88
2022-12-29T10:08:46.087Z,83.69
2022-12-29T10:11:34.778Z,81.65
2022-12-29T10:14:33.725Z,80.87
2022-12-29T10:17:21.837Z,78.59
2022-12-29T10:20:14.753Z,80.28
2022-12-29T10:22:53.008Z,78.38
2022-12-29T10:25:23.682Z,77.88
2022-12-29T10:27:57.455Z,76.92
2022-12-29T10:30:25.246Z,77.49
2022-12-29T10:32:58.298Z,76.35
2022-12-29T10:35:34.424Z,76.46
2022-12-29T10:38:03.761Z,75.84
2022-12-29T10:40:37.400Z,76.72
2022-12-29T10:43:21.055Z,77.37
2022-12-29T10:45:48.787Z,76.86
2022-12-29T10:48:30.064Z,76.21
2022-12-29T10:51:02.181Z,76.16
2022-12-29T10:53:39.927Z,76.59
2022-12-29T10:56:16.156Z,75.80
2022-12-29T10:58:49.573Z,76.26
2022-12-29T11:01:18.547Z,76.45
2022-12-29T11:04:03.473Z,75.73
2022-12-29T11:06:33.122Z,75.84
2022-12-29T11:09:11.552Z,75.32
2022-12-29T11:11:38.064Z,74.13
2022-12-29T11:14:15.058Z,74.72
2022-12-29T11:16:42.819Z,73.74
2022-12-29T11:19:23.919Z,74.21
2022-12-29T11:21:51.115Z,74.46
2022-12-29T11:24:25.595Z,74.65
2022-12-29T11:26:58.501Z,75.17
2022-12-29T11:29:26.519Z,74.49
2022-12-29T11:31:59.106Z,74.02
2022-12-29T11:34:36.587Z,73.74
2022-12-29T11:37:11.125Z,74.83
2022-12-29T11:39:53.848Z,73.73
2022-12-29T11:42:27.337Z,73.69
2022-12-29T11:44:53.792Z,73.28
2022-12-29T11:47:25.983Z,72.18
2022-12-29T11:49:58.110Z,71.58
2022-12-29T11:52:26.521Z,72.54
2022-12-29T11:54:55.815Z,70.89
2022-12-29T11:57:24.623Z,69.70
2022-12-29T11:59:58.870Z,69.77
2022-12-29T12:02:44.571Z,70.09
2022-12-29T12:05:34.690Z,69.89
2022-12-29T12:08:09.416Z,70.66
2022-12-29T12:10:49.922Z,70.94
2022-12-29T12:13:35.767Z,70.56
2022-12-29T12:16:18.270Z,71.60
2022-12-29T12:19:07.237Z,71.04
2022-12-29T12:21:45.833Z,71.37
2022-12-29T12:24:56.657Z,70.70
2022-12-29T12:27:44.920Z,72.04
2022-12-29T12:30:17.815Z,71.99
2022-12-29T12:33:08.067Z,72.61
2022-12-29T12:36:22.964Z,72.29
2022-12-29T12:39:12.891Z,73.22
2022-12-29T12:42:04.887Z,73.77
2022-12-29T12:44:57.920Z,74.33
2022-12-29T12:47:37.000Z,74.80
2022-12-29T12:50:26.260Z,76.93
2022-12-29T12:53:16.742Z,83.36
2022-12-29T12:55:56.122Z,85.79
2022-12-29T12:58:52.266Z,93.17
2022-12-29T13:01:40.217Z,95.03
2022-12-29T13:04:35.205Z,98.42
2022-12-29T13:07:46.761Z,100.00
2022-12-29T13:10:28.215Z,100.00
2022-12-29T13:13:00.796Z,100.00
2022-12-29T13:15:41.496Z,100.00
2022-12-29T13:18:30.863Z,100.00
2022-12-29T13:21:04.450Z,100.00
2022-12-29T13:23:46.040Z,100.00
2022-12-29T13:26:12.414Z,100.00
2022-12-29T13:29:00.691Z,100.00
2022-12-29T13:31:55.579Z,100.00
2022-12-29T13:34:35.115Z,100.00
2022-12-29T13:37:08.633Z,100.00
2022-12-29T13:39:40.079Z,100.00
2022-12-29T13:42:07.514Z,100.00
2022-12-29T13:44:38.392Z,100.00
2022-12-29T13:47:22.920Z,100.00
2022-12-29T13:49:55.204Z,100.00
2022-12-29T13:52:42.456Z,100.00
2022-12-29T13:55:27.765Z,100.00
2022-12-29T13:58:15.450Z,100.00
2022-12-29T14:01:11.417Z,100.00
2022-12-29T14:03:49.414Z,100.00
2022-12-29T14:06:20.466Z,100.00
2022-12-29T14:08:48.630Z,100.00
2022-12-29T14:11:18.573Z,100.00
2022-12-29T14:13:47.952Z,100.00
2022-12-29T14:16:30.739Z,100.00
2022-12-29T14:19:18.698Z,100.00
2022-12-29T14:21:56.227Z,100.00
2022-12-29T14:24:37.810Z,100.00
2022-12-29T14:27:10.459Z,100.00
2022-12-29T14:29:39.559Z,100.00
2022-12-29T14:32:29.231Z,100.00
2022-12-29T14:34:59.336Z,100.00
2022-12-29T14:37:36.783Z,100.00
2022-12-29T14:40:20.675Z,100.00
2022-12-29T14:42:49.355Z,100.00
2022-12-29T14:45:15.714Z,100.00
2022-12-29T14:47:48.098Z,100.00
2022-12-29T14:50:14.472Z,100.00
2022-12-29T14:52:47.540Z,100.00
2022-12-29T14:55:16.875Z,100.00
2022-12-29T14:57:52.168Z,100.00
2022-12-29T15:00:19.999Z,100.00
2022-12-29T15:02:55.693Z,100.00
2022-12-29T15:05:33.976Z,100.00
2022-12-29T15:08:01.726Z,100.00
2022-12-29T15:10:47.767Z,100.00
2022-12-29T15:13:24.799Z,100.00
2022-12-29T15:15:51.411Z,100.00
2022-12-29T15:18:30.883Z,100.00
2022-12-29T15:21:04.751Z,100.00
2022-12-29T15:23:33.520Z,100.00
2022-12-29T15:26:03.859Z,100.00
2022-12-29T15:28:41.102Z,100.00
2022-12-29T15:31:18.562Z,100.00
2022-12-29T15:33:49.222Z,100.00
2022-12-29T15:36:21.878Z,100.00
2022-12-29T15:38:49.713Z,100.00
2022-12-29T15:41:22.575Z,100.00
2022-12-29T15:44:06.797Z,100.00
2022-12-29T15:46:33.316Z,100.00
2022-12-29T15:48:59.951Z,100.00
2022-12-29T15:51:35.582Z,100.00
2022-12-29T15:54:02.430Z,100.00
2022-12-29T15:56:33.644Z,100.00
2022-12-29T15:59:03.100Z,100.00
2022-12-29T16:01:35.499Z,100.00
2022-12-29T16:04:06.923Z,100.00
2022-12-29T16:06:55.354Z,100.00
2022-12-29T16:09:35.251Z,100.00
2022-12-29T16:12:14.498Z,100.00
2022-12-29T16:14:57.590Z,100.00
2022-12-29T16:17:27.900Z,100.00
2022-12-29T16:19:55.932Z,100.00
2022-12-29T16:22:31.047Z,100.00
2022-12-29T16:25:05.032Z,100.00
2022-12-29T16:27:41.505Z,100.00
2022-12-29T16:30:33.409Z,100.00
2022-12-29T16:33:02.839Z,100.00
2022-12-29T16:35:42.970Z,100.00
2022-12-29T16:38:16.479Z,100.00
2022-12-29T16:41:03.520Z,100.00
2022-12-29T16:43:40.328Z,100.00
2022-12-29T16:46:18.151Z,100.00
2022-12-29T16:48:54.692Z,100.00
2022-12-29T16:51:30.911Z,100.00
2022-12-29T16:53:58.021Z,100.00
2022-12-29T16:56:30.238Z,100.00
2022-12-29T16:59:23.101Z,100.00
2022-12-29T17:01:55.226Z,100.00
2022-12-29T17:04:21.641Z,100.00
2022-12-29T17:06:48.601Z,100.00
2022-12-29T17:09:27.828Z,100.00
2022-12-29T17:12:10.734Z,100.00
2022-12-29T17:14:42.781Z,100.00
2022-12-29T17:17:39.004Z,100.00
2022-12-29T17:20:26.815Z,100.00
2022-12-29T17:22:54.958Z,100.00
2022-12-29T17:25:37.351Z,100.00
2022-12-29T17:28:13.624Z,100.00
2022-12-29T17:30:41.038Z,100.00
2022-12-29T17:33:13.574Z,100.00
2022-12-29T17:35:42.400Z,100.00
2022-12-29T17:38:46.617Z,100.00
2022-12-29T17:41:19.386Z,100.00
2022-12-29T17:43:48.431Z,100.00
2022-12-29T17:46:14.982Z,100.00
2022-12-29T17:48:41.411Z,100.00
2022-12-29T17:51:11.919Z,100.00
2022-12-29T17:53:38.507Z,100.00
2022-12-29T17:56:08.073Z,100.00
2022-12-29T17:58:34.791Z,100.00
2022-12-29T18:01:03.199Z,100.00
2022-12-29T18:03:35.877Z,100.00
2022-12-29T18:06:06.462Z,100.00
2022-12-29T18:08:34.555Z,100.00
2022-12-29T18:11:04.392Z,100.00
2022-12-29T18:13:43.535Z,100.00
2022-12-29T18:16:13.133Z,100.00
2022-12-29T18:18:41.959Z,100.00
2022-12-29T18:21:22.929Z,100.00
2022-12-29T18:23:49.806Z,100.00
2022-12-29T18:26:25.696Z,100.00
2022-12-29T18:28:57.413Z,100.00
2022-12-29T18:31:26.615Z,100.00
2022-12-29T18:33:54.420Z,100.00
2022-12-29T18:36:21.379Z,100.00
2022-12-29T18:38:55.682Z,100.00
2022-12-29T18:41:30.841Z,100.00
2022-12-29T18:43:58.916Z,100.00
2022-12-29T18:46:25.545Z,100.00
2022-12-29T18:48:52.689Z,100.00
2022-12-29T18:51:23.735Z,100.00
2022-12-29T18:53:52.334Z,100.00
2022-12-29T18:56:23.132Z,100.00
2022-12-29T18:58:50.558Z,100.00
2022-12-29T19:01:22.465Z,100.00
2022-12-29T19:03:49.636Z,100.00
2022-12-29T19:06:16.480Z,100.00
2022-12-29T19:08:45.198Z,100.00
2022-12-29T19:11:17.953Z,100.00
2022-12-29T19:13:44.412Z,100.00
2022-12-29T19:16:19.384Z,100.00
2022-12-29T19:19:02.397Z,100.00
2022-12-29T19:21:34.076Z,100.00
2022-12-29T19:24:00.625Z,100.00
2022-12-29T19:26:30.705Z,100.00
2022-12-29T19:28:58.403Z,100.00
2022-12-29T19:31:27.120Z,100.00
2022-12-29T19:33:53.730Z,100.00
2022-12-29T19:36:23.374Z,100.00
2022-12-29T19:38:49.783Z,100.00
2022-12-29T19:41:16.339Z,100.00
2022-12-29T19:43:43.792Z,100.00
2022-12-29T19:46:15.272Z,100.00
2022-12-29T19:48:41.904Z,100.00
2022-12-29T19:51:15.477Z,100.00
2022-12-29T19:53:41.852Z,100.00
2022-12-29T19:56:08.976Z,100.00
2022-12-29T19:58:41.556Z,100.00
2022-12-29T20:01:13.466Z,100.00
2022-12-29T20:03:41.515Z,100.00
2022-12-29T20:06:10.345Z,100.00
2022-12-29T20:08:38.169Z,100.00
2022-12-29T20:11:11.519Z,100.00
2022-12-29T20:13:37.925Z,100.00
2022-12-29T20:16:07.886Z,100.00
2022-12-29T20:18:38.152Z,100.00
2022-12-29T20:21:07.023Z,100.00
2022-12-29T20:23:34.510Z,100.00
2022-12-29T20:26:02.169Z,100.00
2022-12-29T20:28:29.613Z,100.00
2022-12-29T20:31:03.137Z,100.00
2022-12-29T20:33:34.494Z,100.00
2022-12-29T20:36:23.884Z,100.00
2022-12-29T20:38:55.072Z,100.00
2022-12-29T20:41:22.788Z,100.00
2022-12-29T20:43:50.384Z,100.00
2022-12-29T20:46:20.787Z,100.00
2022-12-29T20:48:48.814Z,100.00
2022-12-29T20:51:17.882Z,100.00
2022-12-29T20:53:44.465Z,100.00
2022-12-29T20:56:15.969Z,100.00
2022-12-29T20:59:08.507Z,100.00
2022-12-29T21:01:29.445Z,100.00
2022-12-29T21:03:59.765Z,100.00
2022-12-29T21:06:29.345Z,100.00
2022-12-29T21:08:55.915Z,100.00
2022-12-29T21:11:22.837Z,100.00
2022-12-29T21:13:49.919Z,100.00
2022-12-29T21:16:20.976Z,100.00
2022-12-29T21:18:48.496Z,100.00
2022-12-29T21:21:23.692Z,100.00
2022-12-29T21:23:50.989Z,100.00
2022-12-29T21:26:19.927Z,100.00
2022-12-29T21:28:48.918Z,100.00
2022-12-29T21:31:30.869Z,100.00
2022-12-29T21:33:57.929Z,100.00
2022-12-29T21:36:27.455Z,100.00
2022-12-29T21:38:54.711Z,100.00
2022-12-29T21:41:21.870Z,100.00
2022-12-29T21:44:08.834Z,100.00
2022-12-29T21:46:38.255Z,100.00
2022-12-29T21:49:06.097Z,100.00
2022-12-29T21:51:51.808Z,100.00
2022-12-29T21:54:41.309Z,100.00
2022-12-29T21:57:08.705Z,100.00
2022-12-29T21:59:53.930Z,100.00
2022-12-29T22:02:47.050Z,100.00
2022-12-29T22:05:34.916Z,100.00
2022-12-29T22:08:21.535Z,100.00
2022-12-29T22:11:06.603Z,100.00
2022-12-29T22:13:38.912Z,100.00
2022-12-29T22:16:10.278Z,100.00
2022-12-29T22:18:37.171Z,100.00
2022-12-29T22:21:14.936Z,100.00
2022-12-29T22:23:44.013Z,100.00
2022-12-29T22:26:13.221Z,100.00
2022-12-29T22:28:41.960Z,100.00
2022-12-29T22:31:27.992Z,100.00
2022-12-29T22:34:06.395Z,100.00
2022-12-29T22:36:33.337Z,100.00
2022-12-29T22:38:59.719Z,100.00
2022-12-29T22:41:26.188Z,100.00
2022-12-29T22:43:52.608Z,100.00
2022-12-29T22:46:21.487Z,100.00
2022-12-29T22:48:48.432Z,100.00
2022-12-29T22:51:14.860Z,100.00
2022-12-29T22:53:45.443Z,100.00
2022-12-29T22:56:13.860Z,100.00
2022-12-29T22:58:45.232Z,100.00
2022-12-29T23:01:17.648Z,100.00
2022-12-29T23:03:44.655Z,100.00
2022-12-29T23:06:16.040Z,100.00
2022-12-29T23:08:44.001Z,100.00
2022-12-29T23:11:16.249Z,100.00
2022-12-29T23:13:45.123Z,100.00
2022-12-29T23:16:11.640Z,100.00
2022-12-29T23:18:38.223Z,100.00
2022-12-29T23:21:07.491Z,100.00
2022-12-29T23:23:52.451Z,100.00
2022-12-29T23:26:22.950Z,100.00
2022-12-29T23:28:52.370Z,100.00
2022-12-29T23:31:23.419Z,100.00
2022-12-29T23:33:50.160Z,100.00
2022-12-29T23:36:17.035Z,100.00
2022-12-29T23:38:44.137Z,100.00
2022-12-29T23:41:11.813Z,100.00
2022-12-29T23:43:38.660Z,100.00
2022-12-29T23:46:10.595Z,100.00
2022-12-29T23:48:37.296Z,100.00
2022-12-29T23:51:07.429Z,100.00
2022-12-29T23:53:36.579Z,100.00
2022-12-29T23:56:04.123Z,100.00
2022-12-29T23:58:35.005Z,100.00
